Time;durP1;ratioP1;P1;durP2;ratioP2;P2;SDS_P1;SDS_P2;PMS_P1;PMS_P2;Temp;Humidity;BMP_temperature;BMP_pressure;BME280_temperature;BME280_humidity;BME280_pressure;Samples;Min_cycle;Max_cycle;Signal;HPM_P1;HPM_P2
2021/04/18 00:02:02;;;;;;;39.28;18.95;;;;;;;4.93;100.00;101345.69;4968172;28;20539;-70
2021/04/18 00:04:30;;;;;;;31.75;18.45;;;;;;;4.93;100.00;101344.81;4954014;28;20183;-70
2021/04/18 00:06:56;;;;;;;34.67;18.52;;;;;;;4.72;100.00;101338.34;4987484;28;20133;-69
2021/04/18 00:09:23;;;;;;;30.83;19.13;;;;;;;4.74;100.00;101332.22;4972436;28;20064;-70
2021/04/18 00:11:50;;;;;;;42.95;20.02;;;;;;;4.65;100.00;101326.38;4967894;28;20046;-70
2021/04/18 00:14:17;;;;;;;41.65;20.00;;;;;;;4.61;100.00;101329.94;4980088;28;20126;-70
2021/04/18 00:16:44;;;;;;;40.10;20.75;;;;;;;4.54;100.00;101332.66;4985826;28;20073;-72
2021/04/18 00:19:10;;;;;;;42.40;23.40;;;;;;;4.55;100.00;101325.72;4980776;28;20162;-69
2021/04/18 00:21:37;;;;;;;42.00;21.17;;;;;;;4.56;100.00;101327.44;4979828;28;20047;-70
2021/04/18 00:24:05;;;;;;;47.50;22.02;;;;;;;4.61;100.00;101335.16;4981480;28;20141;-69
2021/04/18 00:26:32;;;;;;;41.03;22.02;;;;;;;4.78;100.00;101340.84;4980913;28;20157;-69
2021/04/18 00:28:59;;;;;;;43.65;21.67;;;;;;;4.61;100.00;101335.16;4975773;28;20477;-69
2021/04/18 00:31:26;;;;;;;51.05;20.88;;;;;;;4.61;100.00;101337.75;4952092;28;20142;-70
2021/04/18 00:33:53;;;;;;;48.80;22.02;;;;;;;4.51;100.00;101340.59;4979038;28;20053;-71
2021/04/18 00:36:28;;;;;;;43.75;22.42;;;;;;;4.48;100.00;101342.38;4979882;28;20288;-69
2021/04/18 00:38:55;;;;;;;46.38;21.92;;;;;;;4.58;100.00;101343.88;4971556;28;20055;-69
2021/04/18 00:41:22;;;;;;;40.90;21.05;;;;;;;4.68;100.00;101329.75;4984958;28;20082;-69
2021/04/18 00:43:49;;;;;;;40.70;20.17;;;;;;;4.61;100.00;101333.41;4992346;28;20145;-69
2021/04/18 00:46:15;;;;;;;41.50;17.83;;;;;;;4.69;100.00;101331.47;4991073;28;20089;-70
2021/04/18 00:48:44;;;;;;;34.75;18.85;;;;;;;4.87;100.00;101324.97;4953774;28;20122;-70
2021/04/18 00:51:12;;;;;;;39.65;21.00;;;;;;;4.79;100.00;101319.94;4975709;28;20149;-71
2021/04/18 00:53:39;;;;;;;43.47;22.00;;;;;;;4.76;100.00;101322.59;4955117;28;20043;-71
2021/04/18 00:56:07;;;;;;;49.28;23.08;;;;;;;4.76;100.00;101329.56;4955887;28;20537;-69
2021/04/18 00:58:34;;;;;;;48.40;22.67;;;;;;;4.60;100.00;101320.41;4955303;28;20056;-69
2021/04/18 01:01:03;;;;;;;38.60;23.90;;;;;;;4.77;100.00;101320.84;4963487;28;20079;-71
2021/04/18 01:03:29;;;;;;;42.75;22.95;;;;;;;4.78;100.00;101322.59;5002088;23;20065;-75
2021/04/18 01:05:56;;;;;;;45.15;20.60;;;;;;;4.81;100.00;101317.28;4986339;28;20042;-74
2021/04/18 01:08:23;;;;;;;37.90;18.83;;;;;;;4.79;100.00;101319.06;4989547;28;20169;-73
2021/04/18 01:10:49;;;;;;;36.78;19.58;;;;;;;4.88;100.00;101324.06;4974362;28;20151;-74
2021/04/18 01:13:16;;;;;;;32.47;18.60;;;;;;;5.01;100.00;101325.50;4961402;28;20527;-75
2021/04/18 01:15:43;;;;;;;37.20;18.05;;;;;;;5.02;100.00;101332.41;4951889;28;20426;-75
2021/04/18 01:18:10;;;;;;;36.70;17.45;;;;;;;5.02;100.00;101327.19;4977478;28;20034;-76
2021/04/18 01:20:37;;;;;;;33.22;16.92;;;;;;;4.95;100.00;101330.84;4953342;28;20051;-75
2021/04/18 01:23:03;;;;;;;29.58;16.35;;;;;;;5.04;100.00;101328.03;4952210;28;20054;-75
2021/04/18 01:25:30;;;;;;;30.98;15.57;;;;;;;5.04;100.00;101329.75;4934141;28;20116;-75
2021/04/18 01:27:57;;;;;;;35.85;16.65;;;;;;;5.17;100.00;101315.50;4957118;28;20053;-75
2021/04/18 01:30:26;;;;;;;25.88;15.35;;;;;;;5.41;100.00;101334.91;4954898;28;20471;-76
2021/04/18 01:32:55;;;;;;;31.63;14.38;;;;;;;5.36;100.00;101328.06;4958943;28;20050;-74
2021/04/18 01:35:22;;;;;;;40.00;16.17;;;;;;;5.27;100.00;101324.84;4956452;28;20094;-75
2021/04/18 01:37:49;;;;;;;30.77;15.20;;;;;;;5.21;100.00;101326.72;4958930;28;20050;-75
2021/04/18 01:40:18;;;;;;;30.23;15.25;;;;;;;5.23;100.00;101327.56;4969795;28;20299;-74
2021/04/18 01:42:46;;;;;;;32.42;16.08;;;;;;;5.31;100.00;101329.09;4952097;28;20051;-75
2021/04/18 01:45:15;;;;;;;27.15;14.98;;;;;;;5.22;100.00;101341.50;4953824;28;20150;-75
2021/04/18 01:47:42;;;;;;;30.00;16.20;;;;;;;5.16;100.00;101339.03;4959168;28;20052;-74
2021/04/18 01:50:13;;;;;;;29.27;15.23;;;;;;;5.29;100.00;101332.63;4961114;28;20142;-75
2021/04/18 01:52:40;;;;;;;30.83;15.38;;;;;;;5.36;100.00;101330.69;4984017;28;20049;-75
2021/04/18 01:55:08;;;;;;;23.50;15.05;;;;;;;5.29;100.00;101324.78;4974230;28;20060;-75
2021/04/18 01:57:35;;;;;;;31.90;16.00;;;;;;;5.22;100.00;101318.88;4981751;28;20074;-75
2021/04/18 02:00:04;;;;;;;26.75;15.18;;;;;;;5.26;100.00;101320.50;4971595;28;20050;-76
2021/04/18 02:02:31;;;;;;;30.35;14.52;;;;;;;5.33;100.00;101321.19;4957736;28;20556;-75
2021/04/18 02:04:58;;;;;;;32.05;15.55;;;;;;;5.27;100.00;101313.53;4948909;28;20461;-75
2021/04/18 02:07:25;;;;;;;26.83;15.38;;;;;;;5.23;100.00;101317.13;4955173;28;20075;-75
2021/04/18 02:09:52;;;;;;;35.80;16.73;;;;;;;5.23;100.00;101315.38;4977089;28;20126;-75
2021/04/18 02:12:18;;;;;;;31.42;17.63;;;;;;;5.25;100.00;101318.78;4975974;28;20484;-76
2021/04/18 02:14:45;;;;;;;26.75;15.70;;;;;;;5.11;100.00;101315.66;4953434;28;20050;-75
2021/04/18 02:17:12;;;;;;;29.52;16.27;;;;;;;5.03;100.00;101323.69;4953575;28;20084;-75
2021/04/18 02:19:39;;;;;;;32.83;16.40;;;;;;;5.06;100.00;101312.31;4979588;28;20092;-75
2021/04/18 02:22:06;;;;;;;32.45;17.98;;;;;;;5.01;100.00;101314.19;4975068;28;20058;-75
2021/04/18 02:24:32;;;;;;;30.05;17.23;;;;;;;4.92;100.00;101310.06;4982959;28;20042;-74
2021/04/18 02:26:59;;;;;;;33.03;18.00;;;;;;;4.98;100.00;101319.47;4982211;28;20376;-74
2021/04/18 02:29:26;;;;;;;38.60;18.92;;;;;;;4.91;100.00;101323.13;4965972;28;20092;-76
2021/04/18 02:31:52;;;;;;;33.00;18.25;;;;;;;5.08;100.00;101315.75;4963852;28;20298;-74
2021/04/18 02:34:19;;;;;;;32.65;17.80;;;;;;;5.15;100.00;101322.53;4959360;28;20042;-75
2021/04/18 02:36:46;;;;;;;32.17;18.90;;;;;;;5.21;100.00;101327.59;4953688;28;20050;-75
2021/04/18 02:39:13;;;;;;;32.50;16.83;;;;;;;5.08;100.00;101334.84;4971216;28;20121;-74
2021/04/18 02:41:40;;;;;;;40.22;19.45;;;;;;;5.21;100.00;101327.59;4975270;28;20062;-74
2021/04/18 02:44:06;;;;;;;39.92;18.58;;;;;;;5.03;100.00;101334.13;4953670;28;20468;-75
2021/04/18 02:46:33;;;;;;;34.90;18.60;;;;;;;5.04;100.00;101340.19;4959671;28;20141;-75
2021/04/18 02:49:02;;;;;;;41.17;21.85;;;;;;;4.89;100.00;101344.03;4970422;28;20069;-75
2021/04/18 02:51:30;;;;;;;48.67;20.88;;;;;;;5.03;100.00;101341.94;4957624;28;20109;-74
2021/04/18 02:53:59;;;;;;;45.53;23.30;;;;;;;4.91;100.00;101339.66;4934753;28;20042;-74
2021/04/18 02:56:27;;;;;;;52.00;23.38;;;;;;;4.96;100.00;101334.34;4978136;28;20507;-75
2021/04/18 02:58:54;;;;;;;52.53;23.25;;;;;;;4.89;100.00;101338.81;4960730;28;21120;-74
2021/04/18 03:01:21;;;;;;;40.78;23.58;;;;;;;4.84;100.00;101338.06;4946457;28;20772;-75
2021/04/18 03:03:48;;;;;;;55.42;25.25;;;;;;;4.92;100.00;101338.75;4960893;28;20050;-75
2021/04/18 03:06:15;;;;;;;48.38;26.77;;;;;;;4.78;100.00;101328.66;4955694;28;20133;-75
2021/04/18 03:08:42;;;;;;;61.72;28.73;;;;;;;4.70;100.00;101332.34;4952454;28;20420;-73
2021/04/18 03:11:10;;;;;;;55.30;28.63;;;;;;;4.68;100.00;101334.97;4935691;28;20043;-74
2021/04/18 03:13:37;;;;;;;55.53;28.00;;;;;;;4.77;100.00;101331.28;4981131;28;20236;-75
2021/04/18 03:16:05;;;;;;;57.60;30.50;;;;;;;4.79;100.00;101334.72;4956090;28;20054;-74
2021/04/18 03:18:32;;;;;;;62.53;30.98;;;;;;;4.71;100.00;101331.44;4962466;28;20375;-74
2021/04/18 03:20:59;;;;;;;94.60;29.85;;;;;;;4.69;100.00;101328.88;4970854;28;20050;-75
2021/04/18 03:23:26;;;;;;;70.85;30.70;;;;;;;4.67;100.00;101324.56;4979616;28;20070;-75
2021/04/18 03:25:53;;;;;;;64.88;30.58;;;;;;;4.69;100.00;101314.97;4974032;28;20046;-75
2021/04/18 03:28:19;;;;;;;67.90;32.50;;;;;;;4.68;100.00;101314.09;4977873;28;20157;-74
2021/04/18 03:30:46;;;;;;;59.42;30.83;;;;;;;4.61;100.00;101309.06;4950930;28;20058;-74
2021/04/18 03:33:13;;;;;;;75.45;35.10;;;;;;;4.64;100.00;101311.59;4957484;28;20655;-75
2021/04/18 03:35:41;;;;;;;75.15;34.33;;;;;;;4.55;100.00;101304.88;4954279;28;20050;-75
2021/04/18 03:38:09;;;;;;;86.40;35.90;;;;;;;4.54;100.00;101303.13;4944041;28;20161;-75
2021/04/18 03:40:37;;;;;;;84.55;37.13;;;;;;;4.35;100.00;101305.31;4954345;28;20585;-76
2021/04/18 03:43:04;;;;;;;83.63;38.38;;;;;;;4.55;100.00;101305.72;4951781;28;20047;-74
2021/04/18 03:45:31;;;;;;;89.47;39.90;;;;;;;4.37;100.00;101306.16;4973663;28;20057;-75
2021/04/18 03:47:58;;;;;;;95.10;36.35;;;;;;;4.55;100.00;101313.53;4944117;28;20470;-75
2021/04/18 03:50:25;;;;;;;101.25;37.28;;;;;;;4.51;100.00;101314.50;4975519;28;20063;-75
2021/04/18 03:52:55;;;;;;;84.57;37.60;;;;;;;4.61;100.00;101309.94;4961279;28;20261;-75
2021/04/18 03:55:23;;;;;;;73.65;38.45;;;;;;;4.58;100.00;101315.22;4970891;28;20061;-75
2021/04/18 03:57:50;;;;;;;105.45;37.55;;;;;;;4.58;100.00;101321.28;4972471;28;20120;-74
2021/04/18 04:00:17;;;;;;;113.35;41.22;;;;;;;4.50;100.00;101318.00;4960219;28;20108;-75
2021/04/18 04:02:44;;;;;;;97.50;40.58;;;;;;;4.51;100.00;101319.72;4956947;28;20042;-74
2021/04/18 04:05:12;;;;;;;114.28;38.10;;;;;;;4.57;100.00;101318.72;4975676;28;20094;-74
2021/04/18 04:07:38;;;;;;;96.05;40.47;;;;;;;4.51;100.00;101319.72;4950775;28;20146;-73
2021/04/18 04:10:06;;;;;;;87.18;40.67;;;;;;;4.48;100.00;101309.34;4950526;28;20051;-75
2021/04/18 04:12:32;;;;;;;113.35;41.55;;;;;;;4.47;100.00;101317.22;4953203;28;20050;-74
2021/04/18 04:14:59;;;;;;;130.02;42.85;;;;;;;4.50;100.00;101304.09;4949788;28;20043;-74
2021/04/18 04:17:26;;;;;;;87.57;40.05;;;;;;;4.63;100.00;101313.34;4973528;28;20059;-75
2021/04/18 04:19:53;;;;;;;86.28;37.88;;;;;;;4.51;100.00;101322.31;4972411;28;20050;-75
2021/04/18 04:22:20;;;;;;;89.35;37.05;;;;;;;4.57;100.00;101319.56;4962233;28;20068;-75
2021/04/18 04:24:47;;;;;;;109.32;37.05;;;;;;;4.69;100.00;101317.59;4978842;28;20161;-75
2021/04/18 04:27:14;;;;;;;72.43;36.25;;;;;;;4.78;100.00;101323.44;4956985;28;20483;-74
2021/04/18 04:29:42;;;;;;;88.32;39.03;;;;;;;4.90;100.00;101314.44;4936043;28;20043;-74
2021/04/18 04:32:08;;;;;;;77.25;37.58;;;;;;;4.75;100.00;101315.69;4963903;28;20042;-75
2021/04/18 04:34:35;;;;;;;72.07;34.78;;;;;;;4.89;100.00;101317.94;4969804;28;20054;-73
2021/04/18 04:37:02;;;;;;;94.80;38.08;;;;;;;4.97;100.00;101316.00;4940033;28;20048;-73
2021/04/18 04:39:29;;;;;;;89.30;36.03;;;;;;;4.95;100.00;101315.19;4952164;28;20142;-73
2021/04/18 04:41:55;;;;;;;92.35;40.63;;;;;;;4.81;100.00;101314.66;4942037;28;20145;-73
2021/04/18 04:44:22;;;;;;;110.50;44.75;;;;;;;4.66;100.00;101328.06;4970510;28;20387;-74
2021/04/18 04:46:49;;;;;;;114.45;44.72;;;;;;;4.81;100.00;101325.94;4957145;28;20047;-74
2021/04/18 04:49:16;;;;;;;113.57;40.33;;;;;;;4.75;100.00;101322.66;4969261;28;20055;-74
2021/04/18 04:51:42;;;;;;;112.97;42.13;;;;;;;4.77;100.00;101324.34;4970948;28;20606;-73
2021/04/18 04:54:10;;;;;;;191.05;40.83;;;;;;;4.53;100.00;101323.13;4969174;28;20073;-75
2021/04/18 04:56:37;;;;;;;147.45;42.80;;;;;;;4.46;100.00;101324.19;4969495;28;20061;-76
2021/04/18 04:59:04;;;;;;;120.85;44.22;;;;;;;4.54;100.00;101329.19;4955756;28;20999;-74
2021/04/18 05:01:31;;;;;;;103.53;41.80;;;;;;;4.71;100.00;101318.38;4952690;28;20061;-74
2021/04/18 05:03:58;;;;;;;116.95;44.20;;;;;;;4.76;100.00;101321.75;4968612;28;20051;-74
2021/04/18 05:06:25;;;;;;;105.57;43.92;;;;;;;4.58;100.00;101331.72;4952862;28;20065;-76
2021/04/18 05:08:51;;;;;;;115.82;43.58;;;;;;;4.59;100.00;101337.78;4946181;28;20074;-74
2021/04/18 05:11:18;;;;;;;113.97;43.67;;;;;;;4.72;100.00;101326.16;4944555;28;20122;-76
2021/04/18 05:13:45;;;;;;;114.75;43.05;;;;;;;4.67;100.00;101329.78;4962933;28;20132;-73
2021/04/18 05:16:11;;;;;;;120.15;41.33;;;;;;;4.66;100.00;101328.06;4983507;28;20141;-73
2021/04/18 05:18:44;;;;;;;95.80;40.10;;;;;;;4.64;100.00;101322.03;4955412;28;20142;-73
2021/04/18 05:21:12;;;;;;;100.25;38.05;;;;;;;4.67;100.00;101328.03;4947857;28;20153;-74
2021/04/18 05:23:39;;;;;;;126.07;40.45;;;;;;;4.59;100.00;101332.56;4956136;28;20050;-75
2021/04/18 05:26:06;;;;;;;89.32;40.10;;;;;;;4.57;100.00;101326.53;4974646;28;20485;-74
2021/04/18 05:28:33;;;;;;;101.13;39.33;;;;;;;4.67;100.00;101330.63;4977071;28;20057;-73
2021/04/18 05:31:00;;;;;;;91.93;38.47;;;;;;;4.87;100.00;101340.63;4970808;28;20042;-73
2021/04/18 05:33:27;;;;;;;139.68;40.72;;;;;;;4.84;100.00;101327.66;4977213;28;20156;-74
2021/04/18 05:35:54;;;;;;;83.05;38.17;;;;;;;4.92;100.00;101330.06;4975476;28;20145;-73
2021/04/18 05:38:20;;;;;;;92.97;38.85;;;;;;;4.93;100.00;101327.41;4952848;28;20390;-74
2021/04/18 05:40:48;;;;;;;100.38;37.80;;;;;;;4.85;100.00;101336.31;4952682;28;20113;-73
2021/04/18 05:43:15;;;;;;;93.60;39.13;;;;;;;4.78;100.00;101348.66;4970968;28;20125;-74
2021/04/18 05:45:43;;;;;;;104.65;37.55;;;;;;;5.04;100.00;101348.91;4970207;28;20504;-74
2021/04/18 05:48:09;;;;;;;98.28;39.22;;;;;;;5.00;100.00;101338.59;4970186;28;20061;-74
2021/04/18 05:50:38;;;;;;;100.80;39.13;;;;;;;4.95;100.00;101340.41;4961661;28;20061;-75
2021/04/18 05:53:05;;;;;;;108.28;41.35;;;;;;;4.79;100.00;101330.34;4949575;28;20066;-76
2021/04/18 05:55:31;;;;;;;99.68;41.30;;;;;;;4.92;100.00;101338.75;4953066;28;20138;-75
2021/04/18 05:57:58;;;;;;;108.85;41.25;;;;;;;4.95;100.00;101343.88;4977338;28;20057;-74
2021/04/18 06:00:25;;;;;;;89.15;41.10;;;;;;;5.07;100.00;101343.59;4969572;28;20063;-75
2021/04/18 06:02:55;;;;;;;93.75;39.20;;;;;;;5.27;100.00;101337.88;4947955;28;20051;-74
2021/04/18 06:05:22;;;;;;;84.90;37.63;;;;;;;5.43;100.00;101340.09;4972017;28;20242;-75
2021/04/18 06:07:50;;;;;;;96.05;40.03;;;;;;;5.17;100.00;101345.97;4977144;28;20051;-75
2021/04/18 06:10:17;;;;;;;81.65;37.78;;;;;;;5.44;100.00;101340.03;4945672;28;20070;-75
2021/04/18 06:12:43;;;;;;;93.60;39.17;;;;;;;5.32;100.00;101340.38;4984356;28;20081;-73
2021/04/18 06:15:10;;;;;;;100.20;40.97;;;;;;;5.19;100.00;101346.81;4982931;28;20490;-74
2021/04/18 06:17:37;;;;;;;90.40;38.70;;;;;;;5.36;100.00;101364.63;4968855;28;20082;-75
2021/04/18 06:20:05;;;;;;;89.50;35.40;;;;;;;5.44;100.00;101362.69;4948427;28;20568;-75
2021/04/18 06:22:32;;;;;;;84.43;35.92;;;;;;;5.38;100.00;101350.66;4969492;28;20077;-75
2021/04/18 06:24:59;;;;;;;92.88;39.88;;;;;;;5.36;100.00;101355.06;4971278;28;20133;-75
2021/04/18 06:27:26;;;;;;;91.25;39.17;;;;;;;5.33;100.00;101368.19;4949625;28;20055;-75
2021/04/18 06:29:53;;;;;;;88.82;41.13;;;;;;;5.15;100.00;101364.28;4951276;28;20098;-73
2021/04/18 06:32:20;;;;;;;92.97;40.60;;;;;;;5.19;100.00;101357.25;4951369;28;20133;-74
2021/04/18 06:34:57;;;;;;;102.53;43.15;;;;;;;5.36;100.00;101351.56;4961351;28;20353;-74
2021/04/18 06:37:26;;;;;;;100.32;41.08;;;;;;;5.11;100.00;101351.34;4967191;28;20070;-73
2021/04/18 06:39:53;;;;;;;103.45;42.97;;;;;;;5.03;100.00;101355.00;4968991;28;20385;-73
2021/04/18 06:42:22;;;;;;;88.20;37.80;;;;;;;5.27;100.00;101358.78;4977050;28;20067;-72
2021/04/18 06:44:50;;;;;;;82.28;39.55;;;;;;;5.43;100.00;101364.44;4966786;28;20149;-73
2021/04/18 06:47:17;;;;;;;89.38;41.10;;;;;;;5.48;100.00;101357.34;4972838;28;20189;-73
2021/04/18 06:49:44;;;;;;;87.68;38.45;;;;;;;5.43;100.00;101356.59;4962277;28;20050;-73
2021/04/18 06:52:12;;;;;;;81.85;38.65;;;;;;;5.46;100.00;101361.75;4973654;28;20457;-75
2021/04/18 06:54:39;;;;;;;104.53;42.20;;;;;;;5.01;100.00;101362.03;4950831;28;20456;-75
2021/04/18 06:57:06;;;;;;;87.28;40.92;;;;;;;5.11;100.00;101360.03;4955940;28;20113;-75
2021/04/18 06:59:37;;;;;;;104.05;42.40;;;;;;;5.07;100.00;101358.41;4944338;28;20046;-75
2021/04/18 07:02:05;;;;;;;101.32;42.65;;;;;;;5.11;100.00;101357.44;4960335;28;20137;-74
2021/04/18 07:04:34;;;;;;;94.95;42.17;;;;;;;5.20;100.00;101361.56;4999321;23;20086;-70
2021/04/18 07:07:02;;;;;;;88.75;39.63;;;;;;;5.17;100.00;101357.25;4987151;28;20034;-70
2021/04/18 07:09:28;;;;;;;96.57;42.85;;;;;;;5.16;100.00;101352.09;4981209;28;20050;-70
2021/04/18 07:11:59;;;;;;;93.00;40.90;;;;;;;5.11;100.00;101352.22;5001860;28;20049;-71
2021/04/18 07:14:28;;;;;;;88.88;41.38;;;;;;;5.02;100.00;101355.03;4977788;28;20150;-71
2021/04/18 07:17:14;;;;;;;97.05;43.10;;;;;;;4.98;100.00;101343.81;4960754;28;20035;-70
2021/04/18 07:19:49;;;;;;;89.05;41.00;;;;;;;5.03;100.00;101347.16;4969023;28;20077;-70
2021/04/18 07:22:25;;;;;;;88.80;38.38;;;;;;;5.13;100.00;101337.34;4975981;28;20058;-69
2021/04/18 07:24:54;;;;;;;75.90;36.35;;;;;;;4.89;100.00;101343.19;4961606;28;20304;-71
2021/04/18 07:27:21;;;;;;;84.85;37.17;;;;;;;5.01;100.00;101342.91;4983569;28;20142;-70
2021/04/18 07:29:57;;;;;;;78.32;36.90;;;;;;;5.22;100.00;101331.94;4979144;28;20065;-71
2021/04/18 07:32:25;;;;;;;67.28;34.88;;;;;;;5.26;100.00;101336.16;4989566;28;20142;-69
2021/04/18 07:34:53;;;;;;;66.28;33.60;;;;;;;5.54;100.00;101338.91;4958903;28;20138;-72
2021/04/18 07:37:23;;;;;;;63.38;32.92;;;;;;;5.49;100.00;101355.59;4959871;28;20117;-72
2021/04/18 07:39:57;;;;;;;60.20;31.08;;;;;;;5.42;100.00;101349.69;4975839;28;20129;-70
2021/04/18 07:42:38;;;;;;;61.13;31.33;;;;;;;5.23;100.00;101356.28;4977914;28;20108;-71
2021/04/18 07:45:12;;;;;;;58.92;31.55;;;;;;;5.22;100.00;101351.94;4974954;28;20047;-71
2021/04/18 07:47:41;;;;;;;61.83;31.02;;;;;;;5.31;100.00;101333.41;4980459;28;20066;-71
2021/04/18 07:50:14;;;;;;;56.75;30.58;;;;;;;5.34;100.00;101325.53;4978597;28;20085;-71
2021/04/18 07:52:43;;;;;;;59.40;30.67;;;;;;;5.53;100.00;101328.50;4996377;28;20127;-70
2021/04/18 07:55:12;;;;;;;54.38;28.88;;;;;;;5.44;100.00;101332.22;4974899;28;20059;-70
2021/04/18 07:57:40;;;;;;;47.95;27.45;;;;;;;5.53;100.00;101328.50;4983551;28;20117;-71
2021/04/18 08:00:09;;;;;;;46.50;26.67;;;;;;;5.56;100.00;101342.34;4992519;28;20072;-70
2021/04/18 08:02:36;;;;;;;41.72;24.58;;;;;;;5.29;100.00;101335.22;4971285;28;20453;-70
2021/04/18 08:05:04;;;;;;;46.58;27.05;;;;;;;5.29;100.00;101345.66;4969529;28;20140;-70
2021/04/18 08:07:31;;;;;;;49.60;27.73;;;;;;;5.26;100.00;101349.19;4986150;28;20064;-72
2021/04/18 08:10:31;;;;;;;55.25;27.20;;;;;;;5.42;100.00;101346.22;5001605;28;20081;-70
2021/04/18 08:13:23;;;;;;;50.60;28.85;;;;;;;5.44;100.00;101326.97;4988361;28;20046;-71
2021/04/18 08:15:55;;;;;;;50.67;28.73;;;;;;;5.40;100.00;101355.81;4978796;28;20109;-70
2021/04/18 08:18:43;;;;;;;46.88;27.08;;;;;;;5.33;100.00;101336.88;4965983;28;20073;-71
2021/04/18 08:21:34;;;;;;;54.75;28.35;;;;;;;5.45;100.00;101331.34;4975973;28;20050;-69
2021/04/18 08:24:03;;;;;;;47.53;27.45;;;;;;;5.65;100.00;101335.16;4981425;28;20050;-71
2021/04/18 08:26:31;;;;;;;44.08;25.85;;;;;;;5.73;100.00;101341.88;4982655;28;20101;-71
2021/04/18 08:28:59;;;;;;;37.85;24.27;;;;;;;5.48;100.00;101333.00;4996817;28;20422;-72
2021/04/18 08:31:28;;;;;;;42.50;25.90;;;;;;;5.66;100.00;101334.25;4976894;28;20055;-71
2021/04/18 08:34:01;;;;;;;37.65;23.35;;;;;;;5.78;100.00;101328.69;4994279;28;20416;-70
2021/04/18 08:36:30;;;;;;;29.65;19.88;;;;;;;6.13;100.00;101327.72;4966097;28;20053;-70
2021/04/18 08:39:05;;;;;;;28.65;19.13;;;;;;;6.41;100.00;101329.53;4966997;28;20070;-71
2021/04/18 08:42:00;;;;;;;27.50;19.48;;;;;;;6.64;100.00;101327.03;4980992;28;20057;-72
2021/04/18 08:44:42;;;;;;;27.75;17.15;;;;;;;6.43;100.00;101330.31;4980727;28;20062;-70
2021/04/18 08:47:20;;;;;;;23.67;16.00;;;;;;;6.16;100.00;101339.84;4983528;28;20042;-71
2021/04/18 08:49:49;;;;;;;22.58;16.25;;;;;;;5.82;100.00;101335.56;4964377;28;20050;-72
2021/04/18 08:52:25;;;;;;;24.02;17.02;;;;;;;5.86;100.00;101337.19;4990482;28;20061;-72
2021/04/18 08:54:57;;;;;;;24.90;16.98;;;;;;;5.92;100.00;101328.34;4957091;28;20046;-70
2021/04/18 08:57:25;;;;;;;27.30;17.02;;;;;;;6.07;100.00;101327.88;4977345;28;20373;-72
2021/04/18 08:59:56;;;;;;;20.92;15.38;;;;;;;6.14;100.00;101328.59;4993037;28;20086;-72
2021/04/18 09:02:24;;;;;;;24.05;16.95;;;;;;;5.79;100.00;101335.63;4962934;28;20050;-71
2021/04/18 09:04:55;;;;;;;24.45;17.48;;;;;;;5.69;100.00;101334.19;4952955;28;20142;-72
2021/04/18 09:07:25;;;;;;;24.95;17.65;;;;;;;5.70;100.00;101333.28;4982604;28;20046;-70
2021/04/18 09:09:58;;;;;;;22.35;16.25;;;;;;;5.57;100.00;101336.22;4971206;28;20046;-73
2021/04/18 09:12:25;;;;;;;23.88;17.00;;;;;;;5.53;100.00;101337.19;4977594;28;20452;-70
2021/04/18 09:14:52;;;;;;;25.88;17.75;;;;;;;5.52;100.00;101332.00;4950300;28;20133;-70
2021/04/18 09:17:21;;;;;;;28.88;19.10;;;;;;;5.63;100.00;101334.31;4976530;28;20041;-72
2021/04/18 09:19:50;;;;;;;25.92;19.08;;;;;;;5.53;100.00;101326.75;4978112;28;20725;-70
2021/04/18 09:22:48;;;;;;;24.40;17.85;;;;;;;5.54;100.00;101323.25;4955992;28;20047;-71
2021/04/18 09:25:19;;;;;;;28.67;19.60;;;;;;;5.58;100.00;101318.78;4983789;28;20054;-70
2021/04/18 09:27:51;;;;;;;25.55;18.42;;;;;;;5.57;100.00;101310.09;4998826;28;20042;-69
2021/04/18 09:30:29;;;;;;;27.48;18.63;;;;;;;5.96;100.00;101296.84;5002227;28;20142;-70
2021/04/18 09:32:57;;;;;;;24.75;17.33;;;;;;;6.45;100.00;101286.69;4976660;28;20050;-70
2021/04/18 09:35:25;;;;;;;21.25;15.98;;;;;;;6.64;100.00;101294.78;4960950;28;20081;-69
2021/04/18 09:38:00;;;;;;;33.20;22.90;;;;;;;6.68;100.00;101301.66;4972090;28;20041;-70
2021/04/18 09:40:33;;;;;;;18.75;14.65;;;;;;;6.50;100.00;101303.94;4937431;28;20077;-70
2021/04/18 09:43:02;;;;;;;20.27;14.07;;;;;;;6.61;100.00;101308.81;4991678;28;20054;-71
2021/04/18 09:45:30;;;;;;;17.73;13.10;;;;;;;6.45;100.00;101308.47;4975078;28;20042;-71
2021/04/18 09:47:58;;;;;;;18.48;14.13;;;;;;;6.72;100.00;101306.72;4992570;28;20061;-70
2021/04/18 09:50:34;;;;;;;16.75;13.15;;;;;;;7.28;100.00;101298.75;4982975;28;20057;-70
2021/04/18 09:53:18;;;;;;;18.75;12.77;;;;;;;7.49;100.00;101294.53;4978822;28;20091;-70
2021/04/18 09:55:56;;;;;;;15.70;12.50;;;;;;;7.92;100.00;101294.72;4996678;28;20054;-70
2021/04/18 09:58:31;;;;;;;18.30;13.65;;;;;;;8.17;100.00;101297.28;4945366;28;20068;-71
2021/04/18 10:00:59;;;;;;;14.50;11.37;;;;;;;8.30;99.12;101286.28;4990152;28;20062;-70
2021/04/18 10:03:35;;;;;;;14.38;11.18;;;;;;;8.39;96.28;101290.34;4984115;28;20118;-73
2021/04/18 10:06:03;;;;;;;12.90;10.70;;;;;;;8.46;94.48;101290.94;4988125;28;20050;-70
2021/04/18 10:08:32;;;;;;;12.02;10.30;;;;;;;9.43;93.39;101293.06;4995758;28;20120;-70
2021/04/18 10:11:05;;;;;;;21.52;12.57;;;;;;;9.96;90.32;101290.66;4969281;28;20157;-71
2021/04/18 10:13:41;;;;;;;11.40;9.57;;;;;;;9.80;88.49;101289.66;4996021;28;20054;-70
2021/04/18 10:16:26;;;;;;;10.65;9.30;;;;;;;10.14;88.60;101292.44;4985772;28;20045;-69
2021/04/18 10:19:14;;;;;;;11.82;9.13;;;;;;;10.17;86.26;101282.69;4979189;28;20519;-70
2021/04/18 10:22:08;;;;;;;12.30;10.77;;;;;;;10.38;86.17;101289.63;4997464;28;20056;-72
2021/04/18 10:24:40;;;;;;;12.93;9.52;;;;;;;10.63;84.20;101282.25;4981966;28;20058;-69
2021/04/18 10:27:09;;;;;;;10.75;8.88;;;;;;;9.53;86.84;101284.69;4970559;28;20106;-70
2021/04/18 10:29:38;;;;;;;11.55;9.75;;;;;;;9.95;87.17;101278.44;5003733;28;20054;-70
2021/04/18 10:32:06;;;;;;;13.30;10.02;;;;;;;9.44;88.92;101273.72;4970684;28;20111;-70
2021/04/18 10:34:33;;;;;;;12.80;10.73;;;;;;;10.30;87.83;101278.59;5019911;28;20065;-72
2021/04/18 10:37:01;;;;;;;13.30;10.63;;;;;;;11.01;85.47;101276.88;4985389;28;20051;-71
2021/04/18 10:39:27;;;;;;;12.23;10.00;;;;;;;10.89;83.52;101274.84;4980929;28;20141;-70
2021/04/18 10:41:55;;;;;;;10.88;9.48;;;;;;;11.84;80.10;101273.47;4986110;28;20137;-72
2021/04/18 10:44:22;;;;;;;10.68;9.52;;;;;;;10.81;84.65;101280.50;4980531;28;20109;-74
2021/04/18 10:46:52;;;;;;;12.75;10.35;;;;;;;10.84;83.31;101267.16;4979384;28;20480;-70
2021/04/18 10:49:20;;;;;;;12.75;9.55;;;;;;;10.34;85.50;101280.16;4969256;28;20121;-71
2021/04/18 10:51:47;;;;;;;12.73;10.90;;;;;;;10.51;86.63;101274.09;4965971;28;20054;-70
2021/04/18 10:54:16;;;;;;;15.60;9.90;;;;;;;10.56;84.49;101280.84;4937766;28;20043;-71
2021/04/18 10:56:47;;;;;;;11.98;10.00;;;;;;;10.41;86.06;101280.75;4975929;28;20116;-71
2021/04/18 10:59:14;;;;;;;11.85;10.15;;;;;;;10.56;85.97;101274.72;4985709;28;20054;-70
2021/04/18 11:01:41;;;;;;;11.75;9.77;;;;;;;11.12;83.01;101271.03;4997306;28;20133;-71
2021/04/18 11:04:08;;;;;;;10.93;9.77;;;;;;;10.91;83.34;101294.06;4975291;28;20054;-71
2021/04/18 11:06:35;;;;;;;13.60;9.70;;;;;;;11.24;81.36;101280.97;5000072;28;20064;-71
2021/04/18 11:09:02;;;;;;;10.52;9.07;;;;;;;11.54;80.73;101282.97;4993278;28;20042;-70
2021/04/18 11:11:30;;;;;;;14.02;10.55;;;;;;;11.21;82.91;101282.91;4971421;28;20089;-70
2021/04/18 11:13:57;;;;;;;10.90;9.77;;;;;;;11.14;83.36;101287.66;4971088;28;20055;-71
2021/04/18 11:16:25;;;;;;;11.43;10.18;;;;;;;10.98;84.71;101284.06;4975537;28;21058;-70
2021/04/18 11:18:52;;;;;;;13.73;11.23;;;;;;;10.20;87.50;101283.41;4964867;28;20145;-70